Time;durP1;ratioP1;P1;durP2;ratioP2;P2;SDS_P1;SDS_P2;PMS_P1;PMS_P2;Temp;Humidity;BMP_temperature;BMP_pressure;BME280_temperature;BME280_humidity;BME280_pressure;Samples;Min_cycle;Max_cycle;Signal;HPM_P1;HPM_P2
2024/04/15 00:02:13;;;;;;;6.07;3.20;;;;;;;19.66;56.57;98513.47;7379344;26;20238;-81
2024/04/15 00:05:37;;;;;;;3.10;2.80;;;;;;;19.39;56.83;98507.41;7378951;26;20218;-81
2024/04/15 00:09:00;;;;;;;3.10;2.87;;;;;;;19.97;55.89;98493.28;7378404;26;20720;-81
2024/04/15 00:12:23;;;;;;;3.70;2.83;;;;;;;20.12;55.29;98471.44;7379235;26;20230;-81
2024/04/15 00:15:53;;;;;;;6.57;3.13;;;;;;;20.10;55.06;98479.09;7379372;26;20274;-81
2024/04/15 00:19:19;;;;;;;3.60;3.30;;;;;;;19.55;56.29;98487.19;7378246;26;20279;-81
2024/04/15 00:22:39;;;;;;;3.50;3.20;;;;;;;19.55;56.64;98484.47;7379202;26;20241;-82
2024/04/15 00:26:02;;;;;;;3.50;3.20;;;;;;;19.13;58.66;98491.94;7378911;26;20271;-81
2024/04/15 00:29:25;;;;;;;5.30;3.20;;;;;;;19.25;57.99;98511.72;7379329;26;20247;-81
2024/04/15 00:32:46;;;;;;;4.83;3.10;;;;;;;19.22;59.38;98501.34;7378805;26;20238;-81
2024/04/15 00:36:12;;;;;;;3.50;3.20;;;;;;;18.47;60.44;98488.06;7378885;26;20270;-81
2024/04/15 00:39:36;;;;;;;4.47;3.33;;;;;;;19.47;57.77;98490.47;7378312;26;20246;-81
2024/04/15 00:42:56;;;;;;;3.63;3.23;;;;;;;19.80;56.64;98507.22;7380075;26;20590;-80
2024/04/15 00:46:19;;;;;;;4.50;3.30;;;;;;;19.46;57.57;98486.91;7379160;26;20299;-80
2024/04/15 00:49:40;;;;;;;3.27;2.97;;;;;;;19.02;58.69;98457.47;7378838;26;20287;-81
2024/04/15 00:53:07;;;;;;;4.60;3.40;;;;;;;19.99;55.80;98471.94;7378916;26;20223;-81
2024/04/15 00:56:27;;;;;;;3.30;3.00;;;;;;;20.22;54.77;98446.81;7378523;26;20240;-81
2024/04/15 00:59:51;;;;;;;3.23;2.90;;;;;;;20.29;54.34;98434.44;7377357;26;20242;-81
2024/04/15 01:03:12;;;;;;;5.07;3.27;;;;;;;20.28;54.75;98432.81;7379812;26;20265;-81
2024/04/15 01:06:35;;;;;;;3.53;3.23;;;;;;;20.34;54.56;98445.41;7378671;26;20849;-81
2024/04/15 01:09:58;;;;;;;5.70;3.40;;;;;;;20.38;54.78;98449.22;7378667;26;20350;-81
2024/04/15 01:13:21;;;;;;;3.40;3.10;;;;;;;20.12;56.65;98455.84;7380404;26;20227;-81
2024/04/15 01:16:42;;;;;;;3.97;3.47;;;;;;;18.95;59.83;98462.38;7380129;26;20263;-81
2024/04/15 01:20:06;;;;;;;3.77;3.40;;;;;;;19.61;58.46;98475.19;7378850;26;20251;-81
2024/04/15 01:23:28;;;;;;;4.23;3.47;;;;;;;19.08;58.69;98449.03;7379944;26;20238;-81
2024/04/15 01:26:53;;;;;;;5.13;3.43;;;;;;;19.69;56.81;98441.84;7380591;26;20396;-82
2024/04/15 01:30:14;;;;;;;6.33;3.23;;;;;;;20.04;55.49;98444.59;7380070;26;20248;-80
2024/04/15 01:33:37;;;;;;;4.80;3.70;;;;;;;20.61;54.27;98434.09;7379803;26;20234;-82
2024/04/15 01:37:00;;;;;;;5.33;3.63;;;;;;;20.76;55.05;98431.34;7380115;26;20786;-81
2024/04/15 01:40:21;;;;;;;4.40;3.80;;;;;;;20.77;55.30;98420.09;7381092;26;20240;-81
2024/04/15 01:43:47;;;;;;;3.97;3.57;;;;;;;20.82;56.14;98414.59;7380918;26;20267;-81
2024/04/15 01:47:08;;;;;;;4.40;3.63;;;;;;;20.82;55.87;98411.84;7379504;26;20237;-81
2024/04/15 01:50:31;;;;;;;6.27;3.63;;;;;;;20.90;54.63;98424.19;7380300;26;20587;-80
2024/04/15 01:53:54;;;;;;;4.53;3.57;;;;;;;20.48;54.32;98410.03;7380951;26;20340;-81
2024/04/15 01:57:14;;;;;;;4.67;3.70;;;;;;;20.28;55.08;98426.53;7379717;26;20766;-81
2024/04/15 02:00:40;;;;;;;4.63;3.40;;;;;;;20.33;54.89;98418.31;7371491;26;20269;-82
2024/04/15 02:04:01;;;;;;;4.00;3.60;;;;;;;20.11;56.18;98426.81;7382114;26;20224;-80
2024/04/15 02:07:24;;;;;;;3.63;3.30;;;;;;;19.93;55.62;98423.78;7381134;26;20229;-82
2024/04/15 02:10:44;;;;;;;4.13;3.20;;;;;;;20.37;54.58;98414.72;7378694;26;20294;-81
2024/04/15 02:14:08;;;;;;;6.43;3.47;;;;;;;20.18;54.22;98391.78;7380546;26;20223;-81
2024/04/15 02:17:34;;;;;;;3.50;3.20;;;;;;;20.30;53.86;98395.03;7378729;26;20560;-81
2024/04/15 02:20:57;;;;;;;5.83;3.27;;;;;;;20.57;54.30;98411.13;7379626;26;20241;-81
2024/04/15 02:24:20;;;;;;;4.40;3.20;;;;;;;20.65;53.66;98405.91;7380406;26;20223;-81
2024/04/15 02:27:40;;;;;;;6.40;3.20;;;;;;;20.54;53.74;98417.97;7379483;26;20266;-81
2024/04/15 02:31:04;;;;;;;3.57;3.10;;;;;;;20.53;53.12;98407.31;7379773;26;20237;-81
2024/04/15 02:34:27;;;;;;;5.10;3.27;;;;;;;20.74;52.57;98395.19;7380173;26;20633;-81
2024/04/15 02:37:50;;;;;;;3.60;3.30;;;;;;;20.92;52.66;98406.34;7379418;26;20268;-81
2024/04/15 02:41:11;;;;;;;3.40;3.10;;;;;;;20.71;52.03;98393.81;7380364;26;20238;-81
2024/04/15 02:44:34;;;;;;;3.83;3.23;;;;;;;20.57;54.15;98411.13;7379971;26;20274;-80
2024/04/15 02:47:54;;;;;;;4.23;3.43;;;;;;;20.48;53.63;98401.81;7380181;26;20225;-81
2024/04/15 02:51:20;;;;;;;5.97;3.10;;;;;;;20.63;52.95;98388.09;7380417;26;20274;-81
2024/04/15 02:54:43;;;;;;;4.87;2.90;;;;;;;20.16;53.66;98402.16;7380578;26;20272;-81
2024/04/15 02:58:04;;;;;;;3.67;3.17;;;;;;;19.64;55.10;98378.91;7387395;26;20282;-81
2024/04/15 03:01:27;;;;;;;3.67;3.03;;;;;;;19.54;56.16;98355.13;7344237;26;20253;-81
2024/04/15 03:04:48;;;;;;;4.07;3.20;;;;;;;20.07;54.62;98375.63;7328468;27;20236;-81
2024/04/15 03:08:13;;;;;;;3.43;2.90;;;;;;;20.32;53.16;98368.19;7327835;26;20631;-81
2024/04/15 03:11:34;;;;;;;3.33;2.93;;;;;;;20.28;53.33;98369.84;7328297;26;20285;-81
2024/04/15 03:14:57;;;;;;;3.83;3.37;;;;;;;20.07;54.50;98368.25;7327690;27;20233;-81
2024/04/15 03:18:20;;;;;;;3.50;2.77;;;;;;;19.76;54.62;98369.31;7327118;26;20262;-81
2024/04/15 03:21:41;;;;;;;4.73;2.90;;;;;;;19.92;54.36;98370.16;7369112;26;20242;-81
2024/04/15 03:25:07;;;;;;;4.07;3.00;;;;;;;19.95;55.04;98340.31;7375422;26;20273;-81
2024/04/15 03:28:27;;;;;;;3.53;2.53;;;;;;;20.12;52.39;98348.25;7343960;26;20242;-81
2024/04/15 03:31:50;;;;;;;4.13;2.90;;;;;;;19.96;52.61;98368.50;7341796;26;20282;-81
2024/04/15 03:35:12;;;;;;;3.23;2.90;;;;;;;19.84;52.79;98379.75;7348343;26;20736;-82
2024/04/15 03:38:36;;;;;;;4.17;3.10;;;;;;;19.91;52.97;98368.50;7374375;26;20268;-81
2024/04/15 03:42:02;;;;;;;4.77;3.03;;;;;;;19.61;53.54;98363.88;7375449;26;20239;-81
2024/04/15 03:45:25;;;;;;;9.30;3.37;;;;;;;19.46;54.01;98338.44;7316771;27;20243;-80
2024/04/15 03:48:45;;;;;;;3.10;2.57;;;;;;;19.50;53.54;98347.72;7326962;27;20228;-81
2024/04/15 03:52:08;;;;;;;3.73;2.93;;;;;;;19.84;52.00;98327.75;7327811;26;20281;-81
2024/04/15 03:55:32;;;;;;;3.17;2.30;;;;;;;20.20;50.82;98332.09;7363149;26;20290;-81
2024/04/15 03:58:55;;;;;;;2.97;2.40;;;;;;;20.32;50.83;98321.66;7372488;26;20231;-83
2024/04/15 04:02:18;;;;;;;2.97;2.40;;;;;;;20.36;50.92;98324.63;7327906;26;20308;-81
2024/04/15 04:05:41;;;;;;;3.43;2.60;;;;;;;20.26;50.59;98322.75;7328586;27;20573;-81
2024/04/15 04:09:02;;;;;;;3.20;2.63;;;;;;;20.40;50.99;98331.22;7328042;27;20218;-81
2024/04/15 04:12:25;;;;;;;5.53;3.10;;;;;;;20.31;51.51;98311.78;7369078;26;20294;-81
2024/04/15 04:15:52;;;;;;;4.03;3.33;;;;;;;19.94;52.61;98324.97;7374899;26;20589;-80
2024/04/15 04:19:15;;;;;;;4.27;3.10;;;;;;;20.21;52.35;98319.19;7374468;26;20235;-81
2024/04/15 04:22:38;;;;;;;3.17;2.90;;;;;;;20.18;52.32;98350.72;7375477;26;20283;-81
2024/04/15 04:26:01;;;;;;;4.23;3.20;;;;;;;20.26;52.08;98354.78;7375242;26;20274;-80
2024/04/15 04:29:22;;;;;;;4.10;3.60;;;;;;;19.83;52.95;98358.94;7374044;26;20226;-80
2024/04/15 04:32:47;;;;;;;4.80;3.10;;;;;;;19.81;53.20;98343.91;7374997;26;20271;-80
2024/04/15 04:36:08;;;;;;;6.10;3.27;;;;;;;19.90;52.83;98350.44;7375162;26;20774;-81
2024/04/15 04:39:32;;;;;;;3.40;3.10;;;;;;;19.90;52.27;98348.53;7374118;26;20319;-80
2024/04/15 04:42:55;;;;;;;3.93;3.00;;;;;;;20.07;52.29;98359.22;7380005;26;20227;-80
2024/04/15 04:46:18;;;;;;;4.70;3.30;;;;;;;19.84;52.60;98352.38;7372693;26;20247;-80
2024/04/15 04:49:44;;;;;;;4.33;3.17;;;;;;;19.74;52.63;98368.78;7331039;26;20245;-82
2024/04/15 04:53:07;;;;;;;5.17;3.47;;;;;;;19.80;52.25;98383.31;7351152;26;20244;-81
2024/04/15 04:56:28;;;;;;;8.13;3.40;;;;;;;19.84;52.21;98351.53;7329345;26;20241;-81
2024/04/15 04:59:55;;;;;;;4.67;3.57;;;;;;;19.82;52.32;98351.81;7336632;26;20714;-80
2024/04/15 05:03:18;;;;;;;4.27;3.87;;;;;;;19.65;52.34;98345.00;7380146;26;20265;-81
2024/04/15 05:06:43;;;;;;;6.00;4.07;;;;;;;19.52;53.00;98360.03;7379896;26;20267;-81
2024/04/15 05:10:04;;;;;;;10.53;4.17;;;;;;;19.73;52.11;98371.78;7379758;26;20279;-81
2024/04/15 05:13:27;;;;;;;4.10;3.53;;;;;;;19.53;53.29;98369.06;7379188;26;20231;-81
2024/04/15 05:16:50;;;;;;;5.70;3.60;;;;;;;19.50;52.91;98364.97;7380407;26;20275;-81
2024/04/15 05:20:11;;;;;;;4.53;3.80;;;;;;;19.58;52.68;98358.94;7378333;26;20234;-81
2024/04/15 05:23:37;;;;;;;6.73;4.63;;;;;;;19.14;53.13;98359.69;7379949;26;20693;-81
2024/04/15 05:27:00;;;;;;;5.97;4.43;;;;;;;19.46;52.55;98376.72;7378944;26;20240;-80
2024/04/15 05:30:23;;;;;;;5.57;4.93;;;;;;;19.43;52.10;98361.69;7379146;26;20266;-81
2024/04/15 05:33:46;;;;;;;7.77;4.83;;;;;;;19.34;51.63;98349.63;7378657;26;20616;-80
2024/04/15 05:37:09;;;;;;;7.03;4.77;;;;;;;19.50;51.95;98367.69;7378064;26;20234;-81
2024/04/15 05:40:32;;;;;;;6.33;4.73;;;;;;;19.42;52.17;98379.19;7379830;26;20242;-82
2024/04/15 05:43:56;;;;;;;6.53;4.53;;;;;;;19.28;52.20;98386.25;7379432;26;20290;-82
2024/04/15 05:47:16;;;;;;;8.87;5.40;;;;;;;19.34;53.09;98376.16;7377609;26;20225;-79
2024/04/15 05:50:41;;;;;;;7.47;5.37;;;;;;;19.07;53.84;98391.91;7377179;26;20324;-79
2024/04/15 05:54:04;;;;;;;7.03;5.17;;;;;;;18.62;55.00;98369.88;7376031;26;20243;-79
2024/04/15 05:57:30;;;;;;;5.23;4.33;;;;;;;18.71;54.65;98373.75;7326522;27;20270;-78
2024/04/15 06:00:50;;;;;;;10.30;5.27;;;;;;;18.99;54.16;98401.44;7332512;26;20239;-79
2024/04/15 06:04:13;;;;;;;6.30;5.20;;;;;;;19.41;53.68;98396.66;7327396;27;20269;-79
2024/04/15 06:07:37;;;;;;;7.30;4.97;;;;;;;18.68;55.01;98390.66;7327665;27;20231;-80
2024/04/15 06:11:00;;;;;;;8.83;4.77;;;;;;;18.90;54.96;98391.31;7328228;26;20732;-80
2024/04/15 06:14:26;;;;;;;8.37;4.33;;;;;;;19.16;53.41;98373.91;7328456;27;20226;-80
2024/04/15 06:17:49;;;;;;;6.10;3.70;;;;;;;18.81;53.46;98366.41;7326968;27;20223;-79
2024/04/15 06:21:12;;;;;;;3.93;3.43;;;;;;;19.29;53.08;98376.94;7326777;26;20325;-78
2024/04/15 06:24:35;;;;;;;8.17;3.50;;;;;;;19.42;51.48;98389.28;7357536;26;20802;-78
2024/04/15 06:27:58;;;;;;;5.67;3.30;;;;;;;19.19;51.67;98378.81;7374043;26;20244;-78
2024/04/15 06:31:21;;;;;;;5.97;3.63;;;;;;;19.15;52.33;98396.84;7375665;26;20289;-79
2024/04/15 06:34:44;;;;;;;5.80;3.40;;;;;;;19.08;51.66;98374.41;7374229;26;20314;-77
2024/04/15 06:38:05;;;;;;;5.10;3.13;;;;;;;19.22;51.32;98408.41;7372865;26;20290;-79
2024/04/15 06:41:28;;;;;;;5.90;2.87;;;;;;;18.99;51.58;98398.72;7372727;26;20247;-78
2024/04/15 06:44:49;;;;;;;5.67;3.33;;;;;;;19.04;51.17;98381.53;7376706;26;20269;-81
2024/04/15 06:48:16;;;;;;;5.23;3.20;;;;;;;19.26;51.33;98379.41;7377691;26;20230;-79
2024/04/15 06:51:40;;;;;;;3.37;2.97;;;;;;;19.29;50.28;98389.81;7343919;26;20347;-81
2024/04/15 06:55:03;;;;;;;5.10;2.87;;;;;;;19.08;49.73;98383.44;7359355;26;20281;-81
2024/04/15 06:58:24;;;;;;;5.17;2.77;;;;;;;18.83;51.18;98388.00;7368537;26;20285;-81
2024/04/15 07:01:47;;;;;;;4.80;3.17;;;;;;;18.80;51.20;98404.94;7341318;26;20235;-81
2024/04/15 07:05:10;;;;;;;5.77;2.80;;;;;;;19.03;50.30;98386.16;7370034;26;20283;-83
2024/04/15 07:08:33;;;;;;;5.57;2.60;;;;;;;18.54;51.66;98395.81;7326647;27;20328;-82
2024/04/15 07:11:57;;;;;;;3.07;2.30;;;;;;;18.57;50.63;98375.34;7371129;26;20290;-81
2024/04/15 07:15:17;;;;;;;3.90;2.63;;;;;;;18.40;51.40;98361.06;7376828;26;20601;-82
2024/04/15 07:18:40;;;;;;;3.33;2.40;;;;;;;18.92;49.73;98373.56;7374016;26;20815;-79
2024/04/15 07:22:04;;;;;;;6.77;2.70;;;;;;;18.80;50.52;98397.56;7374935;26;20266;-81
2024/04/15 07:25:27;;;;;;;4.10;2.20;;;;;;;18.48;50.59;98396.03;7353568;26;20305;-80
2024/04/15 07:28:50;;;;;;;4.17;2.60;;;;;;;18.82;49.60;98409.03;7374315;26;20361;-80
2024/04/15 07:32:11;;;;;;;5.57;2.40;;;;;;;18.83;50.38;98397.03;7374835;26;20636;-80
2024/04/15 07:35:34;;;;;;;3.60;2.73;;;;;;;18.78;50.75;98407.94;7381679;26;20753;-80
2024/04/15 07:39:00;;;;;;;5.10;4.17;;;;;;;18.59;50.73;98406.78;7382995;26;20291;-80
2024/04/15 07:42:23;;;;;;;3.30;2.60;;;;;;;18.77;50.54;98403.56;7363269;26;20242;-80
2024/04/15 07:45:46;;;;;;;3.97;2.50;;;;;;;18.54;50.67;98408.63;7372514;26;20253;-80
2024/04/15 07:49:09;;;;;;;4.00;2.57;;;;;;;18.71;50.53;98407.38;7371671;26;20583;-81
2024/04/15 07:52:32;;;;;;;7.43;3.27;;;;;;;19.31;49.69;98387.63;7372577;26;20227;-81
2024/04/15 07:55:58;;;;;;;9.73;3.00;;;;;;;19.48;49.25;98393.66;7373739;26;20233;-80
2024/04/15 07:59:21;;;;;;;4.33;2.70;;;;;;;18.93;49.65;98386.13;7372542;26;20256;-81
2024/04/15 08:02:42;;;;;;;6.60;3.33;;;;;;;19.04;48.63;98371.41;7374388;26;20229;-81
2024/04/15 08:06:06;;;;;;;8.00;2.90;;;;;;;18.94;49.14;98378.75;7373348;26;20229;-81
2024/04/15 08:09:29;;;;;;;4.60;3.10;;;;;;;19.09;49.92;98389.72;7372345;26;20317;-82
2024/04/15 08:12:55;;;;;;;6.27;3.50;;;;;;;19.41;49.64;98380.25;7373189;26;20231;-81
2024/04/15 08:16:19;;;;;;;7.07;3.10;;;;;;;19.20;49.91;98375.81;7376359;26;20274;-81
2024/04/15 08:19:39;;;;;;;6.40;3.47;;;;;;;18.85;49.82;98355.78;7376491;26;20240;-81
2024/04/15 08:23:02;;;;;;;6.80;4.10;;;;;;;19.27;49.89;98361.94;7377895;26;20235;-81
2024/04/15 08:26:23;;;;;;;7.53;3.83;;;;;;;18.90;52.90;98355.78;7377480;26;20223;-81
2024/04/15 08:29:49;;;;;;;8.80;4.07;;;;;;;19.24;51.48;98346.91;7376417;26;20281;-80
2024/04/15 08:33:13;;;;;;;6.60;4.00;;;;;;;19.82;50.68;98357.28;7347458;26;20239;-81
2024/04/15 08:36:36;;;;;;;6.37;3.63;;;;;;;18.97;50.78;98348.16;7373894;26;20318;-81
2024/04/15 08:39:59;;;;;;;6.43;4.10;;;;;;;19.43;51.34;98336.25;7376594;26;20290;-81
2024/04/15 08:43:24;;;;;;;7.77;4.77;;;;;;;19.19;50.56;98330.47;7362730;26;20621;-80
2024/04/15 08:46:48;;;;;;;8.83;4.33;;;;;;;18.99;50.56;98329.59;7377197;26;20585;-80
2024/04/15 08:50:12;;;;;;;10.43;4.23;;;;;;;19.27;50.71;98331.88;7377325;26;20302;-81
2024/04/15 08:53:32;;;;;;;7.17;4.93;;;;;;;19.40;50.54;98310.25;7378244;26;20228;-81
2024/04/15 08:56:57;;;;;;;8.83;4.50;;;;;;;19.58;49.46;98312.44;7377169;26;20280;-82
2024/04/15 09:00:19;;;;;;;12.73;4.77;;;;;;;19.45;51.00;98310.25;7377151;26;20244;-81
2024/04/15 09:03:46;;;;;;;9.03;4.80;;;;;;;19.74;49.67;98300.41;7378040;26;20244;-81
2024/04/15 09:07:09;;;;;;;9.23;4.70;;;;;;;19.14;50.58;98305.84;7377258;26;20228;-81
2024/04/15 09:10:32;;;;;;;7.90;4.50;;;;;;;19.67;50.04;98301.78;7378029;26;20277;-81
2024/04/15 09:13:53;;;;;;;6.77;4.33;;;;;;;19.84;48.92;98291.34;7377606;26;20234;-80
2024/04/15 09:17:16;;;;;;;10.67;4.47;;;;;;;19.87;49.16;98283.41;7375708;26;20265;-81
2024/04/15 09:20:42;;;;;;;11.10;5.07;;;;;;;20.39;48.50;98296.72;7377696;26;20303;-81
2024/04/15 09:24:03;;;;;;;6.03;4.30;;;;;;;19.97;48.22;98288.88;7377836;26;20358;-81
2024/04/15 09:27:27;;;;;;;7.20;4.20;;;;;;;19.70;48.92;98290.28;7375547;26;20232;-81
2024/04/15 09:30:50;;;;;;;6.60;4.77;;;;;;;20.07;47.92;98299.84;7377167;26;20287;-81
2024/04/15 09:34:10;;;;;;;5.60;4.30;;;;;;;20.43;48.09;98281.34;7376943;26;21038;-81
2024/04/15 09:37:36;;;;;;;6.90;4.80;;;;;;;21.13;47.00;98301.78;7376354;26;20273;-80
2024/04/15 09:40:58;;;;;;;4.87;3.83;;;;;;;20.48;46.85;98286.81;7377139;26;20279;-79
2024/04/15 09:44:22;;;;;;;8.13;4.97;;;;;;;20.61;47.88;98287.00;7332610;26;20243;-81
2024/04/15 09:47:47;;;;;;;6.77;4.50;;;;;;;20.53;46.62;98284.03;7328815;27;20576;-79
2024/04/15 09:51:14;;;;;;;8.60;4.20;;;;;;;21.43;45.04;98260.41;7330395;26;20274;-80
2024/04/15 09:54:40;;;;;;;6.87;4.93;;;;;;;21.17;45.01;98256.25;7329928;27;20226;-81
2024/04/15 09:58:05;;;;;;;6.67;4.30;;;;;;;20.56;45.89;98280.72;7329778;27;20694;-81
2024/04/15 10:01:29;;;;;;;6.83;4.07;;;;;;;20.45;47.61;98279.97;7330035;26;20678;-80
2024/04/15 10:04:53;;;;;;;6.23;4.37;;;;;;;19.96;47.68;98261.78;7329926;27;20391;-79
2024/04/15 10:08:13;;;;;;;5.47;3.60;;;;;;;19.95;47.60;98257.41;7329389;27;20665;-81
2024/04/15 10:11:39;;;;;;;5.67;3.97;;;;;;;20.49;47.58;98233.66;7329870;26;20786;-81
2024/04/15 10:15:00;;;;;;;6.20;3.70;;;;;;;20.87;45.88;98244.66;7330644;27;20226;-80
2024/04/15 10:18:23;;;;;;;6.10;3.77;;;;;;;20.33;47.34;98227.44;7329345;27;20242;-80
2024/04/15 10:21:47;;;;;;;5.57;3.53;;;;;;;21.21;45.60;98223.59;7331185;26;20330;-81
2024/04/15 10:25:10;;;;;;;8.67;4.03;;;;;;;21.80;44.66;98194.78;7330542;27;20700;-81
2024/04/15 10:28:34;;;;;;;7.27;3.30;;;;;;;22.38;43.94;98198.19;7329096;27;20273;-81
2024/04/15 10:31:58;;;;;;;8.47;3.80;;;;;;;23.16;41.37;98172.56;7329776;26;20265;-80
2024/04/15 10:35:21;;;;;;;5.07;3.07;;;;;;;22.34;42.22;98177.91;7330902;27;20272;-80
2024/04/15 10:38:50;;;;;;;6.67;3.10;;;;;;;22.57;41.50;98171.56;7329465;27;20389;-81
2024/04/15 10:42:11;;;;;;;5.50;2.70;;;;;;;22.85;41.56;98160.41;7331798;26;20236;-81
2024/04/15 10:45:37;;;;;;;4.67;2.50;;;;;;;22.95;40.21;98157.47;7331456;27;20265;-81
2024/04/15 10:49:02;;;;;;;3.70;2.60;;;;;;;22.93;40.76;98165.22;7332145;27;20285;-80
2024/04/15 10:52:26;;;;;;;4.10;2.53;;;;;;;22.81;41.10;98156.63;7333198;26;20232;-80
2024/04/15 10:55:50;;;;;;;3.97;2.80;;;;;;;21.79;42.32;98159.41;7330067;27;20260;-79
2024/04/15 10:59:12;;;;;;;3.40;2.40;;;;;;;21.59;43.37;98160.41;7329168;26;20732;-80
2024/04/15 11:02:42;;;;;;;4.73;2.57;;;;;;;21.95;42.59;98131.47;7330394;27;20266;-80
2024/04/15 11:06:06;;;;;;;4.43;2.50;;;;;;;21.95;42.50;98128.72;7330152;27;20603;-79
2024/04/15 11:09:26;;;;;;;3.93;2.67;;;;;;;21.75;42.97;98142.72;7329676;26;20232;-81
2024/04/15 11:12:53;;;;;;;3.30;2.50;;;;;;;21.70;41.91;98092.53;7330340;27;20269;-80
2024/04/15 11:16:14;;;;;;;3.47;2.47;;;;;;;22.25;42.62;98131.06;7330954;27;20309;-80
2024/04/15 11:19:40;;;;;;;6.37;3.10;;;;;;;21.95;43.98;98112.25;7329339;26;20233;-80
2024/04/15 11:23:03;;;;;;;3.53;2.77;;;;;;;21.91;44.22;98092.00;7330479;27;20298;-81
2024/04/15 11:26:28;;;;;;;4.87;2.50;;;;;;;22.29;43.68;98090.91;7329414;27;20227;-78
2024/04/15 11:29:49;;;;;;;3.57;2.90;;;;;;;22.18;42.84;98072.94;7348807;26;20308;-79
2024/04/15 11:33:12;;;;;;;3.60;2.80;;;;;;;22.42;42.12;98070.13;7346113;26;20249;-79
2024/04/15 11:36:40;;;;;;;5.07;2.60;;;;;;;22.48;42.50;98053.28;7342419;26;20749;-79
2024/04/15 11:40:03;;;;;;;5.17;2.77;;;;;;;22.46;41.93;98049.19;7356756;26;20244;-78
2024/04/15 11:43:26;;;;;;;7.47;2.70;;;;;;;22.37;42.23;98037.22;7359867;26;20238;-80
2024/04/15 11:46:50;;;;;;;3.97;2.87;;;;;;;22.12;42.98;98051.38;7368476;26;20626;-78
2024/04/15 11:50:13;;;;;;;5.77;3.00;;;;;;;22.37;42.87;98029.78;7351375;26;20232;-79
2024/04/15 11:53:37;;;;;;;3.13;2.30;;;;;;;22.29;44.25;98026.91;7348359;26;20271;-77
2024/04/15 11:57:00;;;;;;;6.53;2.87;;;;;;;22.06;46.14;98025.09;7353318;26;20691;-77
2024/04/15 12:00:24;;;;;;;6.97;3.30;;;;;;;21.65;47.51;98002.84;7342611;26;20261;-77
2024/04/15 12:03:47;;;;;;;4.37;3.10;;;;;;;21.45;48.53;98019.59;7360411;26;20234;-78
2024/04/15 12:07:10;;;;;;;3.50;2.80;;;;;;;21.00;48.58;98016.56;7352209;26;20305;-78
2024/04/15 12:10:36;;;;;;;5.80;3.10;;;;;;;21.02;49.01;97995.16;7348165;26;20296;-78
2024/04/15 12:14:00;;;;;;;6.27;2.80;;;;;;;19.66;52.12;97994.66;7339068;26;20234;-78
2024/04/15 12:17:20;;;;;;;3.40;2.83;;;;;;;19.49;54.59;97986.00;7338029;26;20837;-79
2024/04/15 12:20:43;;;;;;;4.53;2.83;;;;;;;19.95;51.51;97976.41;7333402;26;20299;-79
2024/04/15 12:24:07;;;;;;;3.37;2.60;;;;;;;19.84;51.69;97957.59;7363881;26;20295;-79
2024/04/15 12:27:30;;;;;;;3.23;2.23;;;;;;;20.62;50.97;97939.94;7354921;26;20311;-78
2024/04/15 12:30:53;;;;;;;4.30;2.40;;;;;;;20.47;50.49;97942.84;7327606;26;20579;-80
2024/04/15 12:34:16;;;;;;;4.20;2.57;;;;;;;21.07;49.53;97917.53;7341020;26;20243;-81
2024/04/15 12:37:40;;;;;;;5.80;2.97;;;;;;;21.54;46.82;97907.28;7376017;26;20229;-80
2024/04/15 12:41:03;;;;;;;5.37;2.40;;;;;;;21.65;48.28;97906.81;7377147;26;20593;-82
2024/04/15 12:44:26;;;;;;;3.97;2.20;;;;;;;21.74;47.93;97894.13;7376560;26;20238;-81
2024/04/15 12:47:49;;;;;;;5.07;2.10;;;;;;;22.24;46.70;97885.00;7375989;26;20805;-79
2024/04/15 12:51:10;;;;;;;4.90;2.63;;;;;;;22.27;45.69;97878.94;7378116;26;20287;-80
2024/04/15 12:54:33;;;;;;;2.67;2.40;;;;;;;22.19;44.98;97863.13;7377483;26;20833;-81
2024/04/15 12:57:54;;;;;;;6.77;2.40;;;;;;;21.71;44.71;97866.47;7376715;26;20712;-80
2024/04/15 13:01:20;;;;;;;7.63;2.50;;;;;;;21.47;46.97;97850.06;7350124;26;20246;-80
2024/04/15 13:04:43;;;;;;;4.23;2.20;;;;;;;21.63;46.60;97848.72;7384364;26;20226;-80
2024/04/15 13:08:07;;;;;;;5.90;2.80;;;;;;;21.81;46.22;97834.16;7379590;26;20227;-81
2024/04/15 13:11:27;;;;;;;4.73;2.50;;;;;;;21.88;45.35;97829.09;7380691;26;20278;-80
2024/04/15 13:14:51;;;;;;;3.63;2.57;;;;;;;22.34;45.43;97805.19;7376094;26;20572;-79
2024/04/15 13:18:16;;;;;;;7.17;2.53;;;;;;;22.65;43.51;97797.19;7353387;26;20245;-81
2024/04/15 13:21:37;;;;;;;6.67;2.70;;;;;;;22.91;43.38;97804.56;7330617;26;20587;-80
2024/04/15 13:25:00;;;;;;;6.57;2.67;;;;;;;23.56;43.04;97805.00;7330426;27;20760;-81
2024/04/15 13:28:21;;;;;;;6.10;2.53;;;;;;;23.28;42.73;97787.81;7330012;27;20227;-80
2024/04/15 13:31:45;;;;;;;7.43;2.90;;;;;;;22.70;41.53;97784.13;7330612;26;20646;-79
2024/04/15 13:35:09;;;;;;;3.63;2.27;;;;;;;23.07;40.88;97774.81;7358351;26;20237;-81
2024/04/15 13:38:33;;;;;;;4.33;2.07;;;;;;;22.46;42.05;97789.03;7358536;26;20651;-81
2024/04/15 13:41:57;;;;;;;3.17;1.97;;;;;;;22.09;42.63;97767.25;7355279;26;20290;-80
2024/04/15 13:45:17;;;;;;;4.60;2.30;;;;;;;22.60;41.21;97765.09;7356837;26;20292;-80
2024/04/15 13:48:41;;;;;;;5.03;2.60;;;;;;;23.02;39.44;97750.16;7358334;26;20562;-80
2024/04/15 13:52:07;;;;;;;5.17;2.13;;;;;;;22.73;41.20;97745.03;7352569;26;20245;-80
2024/04/15 13:55:30;;;;;;;5.97;2.77;;;;;;;23.39;39.62;97745.19;7355023;26;20285;-83
2024/04/15 13:58:51;;;;;;;4.87;2.03;;;;;;;22.72;39.87;97718.69;7324832;27;20266;-80
2024/04/15 14:02:14;;;;;;;3.13;2.03;;;;;;;22.38;41.12;97745.78;7325221;26;20242;-80
2024/04/15 14:05:35;;;;;;;3.43;1.93;;;;;;;22.60;40.43;97737.63;7325725;27;20223;-80
2024/04/15 14:09:01;;;;;;;4.30;2.30;;;;;;;22.88;40.52;97724.63;7324363;27;20215;-80
2024/04/15 14:12:24;;;;;;;8.23;2.93;;;;;;;22.67;38.98;97705.03;7311878;27;20238;-78
2024/04/15 14:15:47;;;;;;;7.10;2.60;;;;;;;21.47;39.48;97696.47;7329731;27;20237;-80
2024/04/15 14:19:10;;;;;;;5.37;2.27;;;;;;;21.77;39.84;97697.88;7329825;26;20239;-79
2024/04/15 14:22:34;;;;;;;11.53;2.37;;;;;;;21.43;39.59;97700.91;7330786;27;20260;-79
2024/04/15 14:25:59;;;;;;;7.00;2.40;;;;;;;21.85;38.96;97695.25;7356982;26;20238;-78
2024/04/15 14:29:22;;;;;;;4.60;2.07;;;;;;;22.38;37.67;97671.63;7358508;26;20228;-80
2024/04/15 14:32:46;;;;;;;2.63;1.60;;;;;;;22.83;36.55;97672.56;7358837;26;20271;-80
2024/04/15 14:36:07;;;;;;;6.77;2.20;;;;;;;23.32;34.19;97645.78;7354981;26;20237;-80
2024/04/15 14:39:31;;;;;;;4.13;1.70;;;;;;;22.78;33.78;97653.44;7348888;26;20585;-80
2024/04/15 14:42:56;;;;;;;4.67;1.87;;;;;;;23.01;33.42;97646.81;7346470;26;20274;-80
2024/04/15 14:46:20;;;;;;;8.57;2.00;;;;;;;23.00;33.73;97609.44;7371198;26;20242;-81
2024/04/15 14:49:40;;;;;;;5.70;1.77;;;;;;;22.37;33.71;97638.97;7366095;26;20284;-79
2024/04/15 14:53:03;;;;;;;3.53;1.80;;;;;;;22.48;33.75;97630.22;7339618;26;20243;-80
2024/04/15 14:56:25;;;;;;;3.47;1.90;;;;;;;22.34;34.40;97629.41;7331145;27;20605;-80
2024/04/15 14:59:51;;;;;;;7.40;1.93;;;;;;;22.37;33.55;97619.75;7330273;27;20289;-80
2024/04/15 15:03:12;;;;;;;5.27;1.80;;;;;;;22.12;33.84;97628.53;7358355;26;20241;-80
2024/04/15 15:06:36;;;;;;;7.63;2.43;;;;;;;22.37;32.87;97626.03;7379194;26;20284;-80
2024/04/15 15:09:59;;;;;;;6.37;2.13;;;;;;;23.02;31.76;97597.00;7379132;26;20238;-80
2024/04/15 15:13:20;;;;;;;4.13;1.87;;;;;;;22.79;31.32;97576.19;7386277;26;20239;-81
2024/04/15 15:16:46;;;;;;;4.00;1.77;;;;;;;22.59;31.78;97595.09;7376198;26;20566;-79
2024/04/15 15:20:11;;;;;;;1.83;1.60;;;;;;;23.29;31.49;97599.63;7374463;26;20294;-78
2024/04/15 15:23:34;;;;;;;4.70;1.90;;;;;;;23.43;30.93;97585.78;7351601;26;20242;-81
2024/04/15 15:26:57;;;;;;;2.77;1.90;;;;;;;22.54;30.51;97578.72;7359785;26;20223;-81
2024/04/15 15:30:22;;;;;;;4.63;1.57;;;;;;;22.70;30.60;97580.78;7357490;26;20240;-79
2024/04/15 15:33:45;;;;;;;3.63;1.70;;;;;;;22.48;29.73;97583.50;7351249;26;20302;-81
2024/04/15 15:37:08;;;;;;;2.87;1.53;;;;;;;22.78;29.92;97565.50;7354764;26;20246;-80
2024/04/15 15:40:31;;;;;;;6.73;1.93;;;;;;;22.09;30.45;97577.00;7360814;26;20288;-80
2024/04/15 15:43:55;;;;;;;6.43;1.60;;;;;;;22.51;30.13;97543.63;7359477;26;20272;-79
2024/04/15 15:47:18;;;;;;;7.33;1.93;;;;;;;22.44;29.80;97568.78;7357400;26;20280;-81
2024/04/15 15:50:41;;;;;;;2.20;1.67;;;;;;;22.10;31.01;97575.84;7345994;26;20288;-80
2024/04/15 15:54:04;;;;;;;3.20;1.60;;;;;;;21.99;30.11;97572.53;7359214;26;20285;-78
2024/04/15 15:57:28;;;;;;;8.03;1.63;;;;;;;21.83;29.54;97567.69;7348164;26;20249;-80